Time;durP1;ratioP1;P1;durP2;ratioP2;P2;SDS_P1;SDS_P2;PMS_P1;PMS_P2;Temp;Humidity;BMP_temperature;BMP_pressure;BME280_temperature;BME280_humidity;BME280_pressure;Samples;Min_cycle;Max_cycle;Signal;HPM_P1;HPM_P2
2021/01/14 00:00:21;;;;;;;5.95;1.02;;;5.30;99.90;;;;;;4853573;29;20045;-75
2021/01/14 00:03:04;;;;;;;9.25;0.85;;;5.30;99.90;;;;;;4855825;29;20046;-74
2021/01/14 00:05:30;;;;;;;12.15;0.90;;;5.30;99.90;;;;;;4855658;29;20033;-75
2021/01/14 00:07:56;;;;;;;3.30;0.60;;;5.30;99.90;;;;;;4838287;29;20444;-75
2021/01/14 00:10:21;;;;;;;9.02;1.02;;;5.30;99.90;;;;;;4839167;29;21106;-75
2021/01/14 00:12:47;;;;;;;11.40;1.20;;;5.30;99.90;;;;;;4834987;29;20040;-75
2021/01/14 00:15:15;;;;;;;6.70;0.75;;;5.20;99.90;;;;;;4838045;29;20360;-75
2021/01/14 00:17:41;;;;;;;5.57;0.75;;;5.30;99.90;;;;;;4822714;29;20348;-75
2021/01/14 00:20:12;;;;;;;4.28;0.70;;;5.20;99.90;;;;;;4839810;29;20409;-76
2021/01/14 00:22:38;;;;;;;7.00;0.73;;;5.30;99.90;;;;;;4850776;29;20082;-76
2021/01/14 00:25:06;;;;;;;2.03;0.63;;;5.30;99.90;;;;;;4845436;29;20037;-75
2021/01/14 00:27:32;;;;;;;6.53;0.82;;;5.30;99.90;;;;;;4852554;29;20086;-75
2021/01/14 00:29:58;;;;;;;10.25;0.82;;;5.20;99.90;;;;;;4851802;29;20487;-75
2021/01/14 00:32:23;;;;;;;8.20;0.95;;;5.20;99.90;;;;;;4851531;29;20102;-75
2021/01/14 00:34:49;;;;;;;9.02;1.15;;;5.20;99.90;;;;;;4838323;29;20109;-75
2021/01/14 00:39:59;;;;;;;7.50;1.02;;;5.20;99.90;;;;;;4840092;29;20548;-76
2021/01/14 00:42:24;;;;;;;14.55;1.27;;;5.10;99.90;;;;;;4854778;29;20026;-75
2021/01/14 00:44:51;;;;;;;14.82;1.85;;;5.10;99.90;;;;;;4836144;29;20053;-75
2021/01/14 00:47:17;;;;;;;10.20;0.97;;;5.10;99.90;;;;;;4835020;29;20119;-76
2021/01/14 00:49:43;;;;;;;3.17;1.02;;;5.10;99.90;;;;;;4849750;29;20030;-75
2021/01/14 00:52:10;;;;;;;4.43;0.95;;;5.10;99.90;;;;;;4834530;29;20034;-75
2021/01/14 00:54:40;;;;;;;2.38;0.75;;;5.10;99.90;;;;;;4853279;29;20029;-75
2021/01/14 00:57:09;;;;;;;2.25;0.47;;;5.10;99.90;;;;;;4849477;29;20030;-76
2021/01/14 00:59:38;;;;;;;8.68;0.47;;;4.90;99.90;;;;;;4854255;29;20030;-75
2021/01/14 01:02:06;;;;;;;7.88;1.23;;;4.90;99.90;;;;;;4838908;29;20034;-75
2021/01/14 01:04:32;;;;;;;13.07;1.02;;;4.90;99.90;;;;;;4836844;29;20034;-75
2021/01/14 01:06:58;;;;;;;6.78;0.70;;;4.90;99.90;;;;;;4838010;29;20030;-75
2021/01/14 01:09:23;;;;;;;8.38;0.68;;;4.90;99.90;;;;;;4839554;29;20038;-75
2021/01/14 01:11:51;;;;;;;7.07;0.52;;;4.90;99.90;;;;;;4837896;29;20034;-74
2021/01/14 01:14:16;;;;;;;6.82;0.85;;;5.00;99.90;;;;;;4838263;29;20034;-75
2021/01/14 01:16:42;;;;;;;6.63;0.73;;;4.90;99.90;;;;;;4839862;29;20376;-75
2021/01/14 01:19:08;;;;;;;2.42;0.82;;;4.90;99.90;;;;;;4836500;29;20026;-75
2021/01/14 01:21:33;;;;;;;3.58;1.08;;;4.90;99.90;;;;;;4838105;29;20037;-75
2021/01/14 01:23:59;;;;;;;5.00;1.55;;;4.90;99.90;;;;;;4838269;29;20034;-76
2021/01/14 01:26:25;;;;;;;6.10;0.98;;;4.90;99.90;;;;;;4852359;29;20034;-75
2021/01/14 01:28:50;;;;;;;3.20;0.65;;;4.90;99.90;;;;;;4836242;29;20090;-75
2021/01/14 01:31:16;;;;;;;8.15;1.45;;;4.90;99.90;;;;;;4841212;29;20124;-75
2021/01/14 01:33:42;;;;;;;2.08;0.57;;;4.80;99.90;;;;;;4836397;29;20046;-75
2021/01/14 01:36:11;;;;;;;6.70;1.40;;;4.70;99.90;;;;;;4836749;29;20554;-75
2021/01/14 01:38:37;;;;;;;4.97;1.05;;;4.70;99.90;;;;;;4850676;29;20065;-76
2021/01/14 01:41:03;;;;;;;4.88;0.60;;;4.70;99.90;;;;;;4838037;29;20519;-76
2021/01/14 01:43:30;;;;;;;4.03;0.50;;;4.70;99.90;;;;;;4838300;29;20049;-75
2021/01/14 01:45:56;;;;;;;14.98;1.88;;;4.70;99.90;;;;;;4838789;29;20026;-75
2021/01/14 01:48:25;;;;;;;3.08;0.70;;;4.70;99.90;;;;;;4851455;29;20058;-76
2021/01/14 01:50:55;;;;;;;2.78;0.70;;;4.70;99.90;;;;;;4856162;29;20479;-76
2021/01/14 01:53:22;;;;;;;9.80;1.55;;;4.70;99.90;;;;;;4856901;29;20041;-76
2021/01/14 01:55:48;;;;;;;3.83;0.60;;;4.70;99.90;;;;;;4853971;29;20032;-76
2021/01/14 01:58:15;;;;;;;7.70;0.55;;;4.70;99.90;;;;;;4853122;29;20060;-76
2021/01/14 02:00:40;;;;;;;2.67;0.45;;;4.70;99.90;;;;;;4836786;29;20073;-76
2021/01/14 02:03:06;;;;;;;4.30;0.60;;;4.70;99.90;;;;;;4854677;29;20053;-76
2021/01/14 02:05:33;;;;;;;3.65;0.70;;;4.80;99.90;;;;;;4855331;29;20041;-77
2021/01/14 02:08:10;;;;;;;5.38;0.40;;;4.80;99.90;;;;;;4836899;29;20521;-76
2021/01/14 02:10:51;;;;;;;2.83;0.73;;;4.70;99.90;;;;;;4855215;29;20073;-77
2021/01/14 02:13:53;;;;;;;5.97;0.73;;;4.80;99.90;;;;;;4853039;29;20078;-76
2021/01/14 02:16:20;;;;;;;4.03;0.70;;;4.70;99.90;;;;;;4814605;29;20045;-76
2021/01/14 02:18:47;;;;;;;4.28;0.70;;;4.70;99.90;;;;;;4853763;29;20021;-77
2021/01/14 02:21:15;;;;;;;4.80;0.63;;;4.70;99.90;;;;;;4855371;29;20129;-76
2021/01/14 02:24:16;;;;;;;4.80;0.52;;;4.80;99.90;;;;;;4857191;29;20037;-76
2021/01/14 02:26:43;;;;;;;1.35;0.47;;;4.70;99.90;;;;;;4858014;29;20092;-76
2021/01/14 02:29:09;;;;;;;3.30;0.43;;;4.70;99.90;;;;;;4856828;29;20474;-76
2021/01/14 02:31:35;;;;;;;2.42;1.02;;;4.70;99.90;;;;;;4856491;29;20097;-76
2021/01/14 02:34:00;;;;;;;3.35;0.68;;;4.70;99.90;;;;;;4856629;29;20033;-77
2021/01/14 02:36:27;;;;;;;4.18;1.30;;;4.70;99.90;;;;;;4855876;29;20045;-76
2021/01/14 02:38:54;;;;;;;2.38;0.82;;;4.70;99.90;;;;;;4855969;29;20132;-77
2021/01/14 02:41:20;;;;;;;1.35;0.68;;;4.70;99.90;;;;;;4858712;29;20053;-77
2021/01/14 02:43:46;;;;;;;3.42;0.60;;;4.70;99.90;;;;;;4842835;29;20040;-77
2021/01/14 02:46:15;;;;;;;3.42;0.65;;;4.70;99.90;;;;;;4856581;29;20025;-77
2021/01/14 02:48:45;;;;;;;4.85;1.10;;;4.70;99.90;;;;;;4840925;29;20525;-76
2021/01/14 02:51:17;;;;;;;2.40;0.57;;;4.70;99.90;;;;;;4856962;29;20108;-76
2021/01/14 02:53:44;;;;;;;5.38;0.60;;;4.60;99.90;;;;;;4856215;29;20026;-76
2021/01/14 02:56:11;;;;;;;4.82;0.65;;;4.60;99.90;;;;;;4857696;29;20033;-76
2021/01/14 02:58:36;;;;;;;4.60;0.55;;;4.60;99.90;;;;;;4857704;29;20128;-77
2021/01/14 03:01:02;;;;;;;1.67;0.50;;;4.60;99.90;;;;;;4857358;29;20112;-76
2021/01/14 03:03:28;;;;;;;2.92;0.50;;;4.60;99.90;;;;;;4842093;29;20022;-77
2021/01/14 03:05:54;;;;;;;2.50;0.47;;;4.60;99.90;;;;;;4839573;29;20048;-76
2021/01/14 03:08:19;;;;;;;3.63;0.68;;;4.60;99.90;;;;;;4854457;29;20416;-76
2021/01/14 03:10:45;;;;;;;6.15;0.52;;;4.60;99.90;;;;;;4857515;29;20040;-77
2021/01/14 03:13:11;;;;;;;12.35;0.93;;;4.50;99.90;;;;;;4857118;29;20033;-77
2021/01/14 03:15:36;;;;;;;4.45;0.50;;;4.50;99.90;;;;;;4857759;29;20418;-76
2021/01/14 03:18:03;;;;;;;9.05;0.40;;;4.40;99.90;;;;;;4860445;29;20029;-76
2021/01/14 03:20:28;;;;;;;4.05;0.50;;;4.40;99.90;;;;;;4860610;29;20037;-76
2021/01/14 03:22:54;;;;;;;7.03;0.57;;;4.40;99.90;;;;;;4861596;29;20057;-77
2021/01/14 03:25:20;;;;;;;5.90;0.80;;;4.40;99.90;;;;;;4845334;29;20049;-77
2021/01/14 03:27:46;;;;;;;3.28;0.80;;;4.30;99.90;;;;;;4861858;29;20049;-77
2021/01/14 03:30:14;;;;;;;5.45;0.47;;;4.30;99.90;;;;;;4861134;29;20037;-77
2021/01/14 03:32:41;;;;;;;3.70;0.70;;;4.30;99.90;;;;;;4860407;29;20328;-78
2021/01/14 03:35:08;;;;;;;6.63;0.75;;;4.30;99.90;;;;;;4860376;29;20037;-77
2021/01/14 03:37:38;;;;;;;10.40;0.80;;;4.30;99.90;;;;;;4860962;29;20124;-77
2021/01/14 03:40:05;;;;;;;7.32;1.10;;;4.30;99.90;;;;;;4862322;29;20491;-77
2021/01/14 03:42:33;;;;;;;3.90;0.50;;;4.30;99.90;;;;;;4842714;29;20026;-77
2021/01/14 03:44:59;;;;;;;1.98;0.70;;;4.30;99.90;;;;;;4860384;29;20037;-77
2021/01/14 03:47:25;;;;;;;6.32;0.70;;;4.40;99.90;;;;;;4837362;29;20050;-78
2021/01/14 03:49:51;;;;;;;4.20;0.77;;;4.30;99.90;;;;;;4839160;29;20038;-78
2021/01/14 03:52:17;;;;;;;4.60;0.60;;;4.30;99.90;;;;;;4824757;29;20033;-78
2021/01/14 03:54:45;;;;;;;1.88;0.85;;;4.30;99.90;;;;;;4822138;29;20038;-77
2021/01/14 03:57:11;;;;;;;;;;;4.40;99.90;;;;;;4827791;29;20543;-77
2021/01/14 03:59:36;;;;;;;5.45;0.80;;;4.40;99.90;;;;;;4836141;29;19917;-76
2021/01/14 04:02:09;;;;;;;7.40;0.80;;;4.40;99.90;;;;;;4820489;29;20094;-77
2021/01/14 04:04:37;;;;;;;2.45;0.45;;;4.30;99.90;;;;;;4823660;29;20075;-77
2021/01/14 04:07:10;;;;;;;5.95;0.50;;;4.30;99.90;;;;;;4838811;29;20038;-77
2021/01/14 04:09:36;;;;;;;3.10;0.82;;;4.30;99.90;;;;;;4839107;29;20041;-77
2021/01/14 04:12:02;;;;;;;6.63;1.05;;;4.30;99.90;;;;;;4824373;29;20041;-77
2021/01/14 04:14:28;;;;;;;7.60;0.52;;;4.40;99.90;;;;;;4836798;29;20045;-77
2021/01/14 04:16:54;;;;;;;5.15;0.95;;;4.40;99.90;;;;;;4834533;29;20038;-76
2021/01/14 04:19:20;;;;;;;2.70;0.90;;;4.40;99.90;;;;;;4824644;29;20383;-75
2021/01/14 04:21:46;;;;;;;1.92;0.70;;;4.40;99.90;;;;;;4838296;29;20521;-76
2021/01/14 04:24:12;;;;;;;4.05;0.85;;;4.40;99.90;;;;;;4824241;29;20026;-76
2021/01/14 04:26:38;;;;;;;7.60;1.02;;;4.40;99.90;;;;;;4823675;29;20061;-76
2021/01/14 04:29:04;;;;;;;2.42;0.47;;;4.40;99.90;;;;;;4824606;29;20035;-77
2021/01/14 04:31:30;;;;;;;1.92;0.75;;;4.40;99.90;;;;;;4838693;29;20035;-76
2021/01/14 04:33:56;;;;;;;2.67;0.70;;;4.40;99.90;;;;;;4822601;29;20079;-77
2021/01/14 04:36:23;;;;;;;13.55;1.85;;;4.30;99.90;;;;;;4837772;29;20468;-76
2021/01/14 04:38:48;;;;;;;4.97;0.63;;;4.30;99.90;;;;;;4838436;29;20058;-77
2021/01/14 04:41:18;;;;;;;3.63;0.60;;;4.30;99.90;;;;;;4823302;29;20050;-76
2021/01/14 04:43:45;;;;;;;6.32;1.17;;;4.30;99.90;;;;;;4824380;29;20034;-77
2021/01/14 04:46:12;;;;;;;8.80;1.17;;;4.30;99.90;;;;;;4836815;29;20125;-76
2021/01/14 04:48:43;;;;;;;3.40;0.65;;;4.30;99.90;;;;;;4852938;29;20133;-77
2021/01/14 04:51:18;;;;;;;2.88;0.77;;;4.30;99.90;;;;;;4860305;29;20501;-76
2021/01/14 04:53:48;;;;;;;7.32;0.50;;;4.30;99.90;;;;;;4859280;29;20364;-76
2021/01/14 04:56:16;;;;;;;4.47;1.05;;;4.30;99.90;;;;;;4859897;29;20112;-76
2021/01/14 04:58:46;;;;;;;4.85;0.47;;;4.30;99.90;;;;;;4850574;29;20037;-77
2021/01/14 05:01:23;;;;;;;2.72;0.50;;;4.20;99.90;;;;;;4858486;29;20041;-76
2021/01/14 05:03:50;;;;;;;5.53;0.57;;;4.20;99.90;;;;;;4859767;29;20036;-76
2021/01/14 05:06:18;;;;;;;7.25;0.60;;;4.10;99.90;;;;;;4858904;29;20042;-76
2021/01/14 05:08:45;;;;;;;3.25;1.25;;;4.10;99.90;;;;;;4860718;29;20451;-75
2021/01/14 05:11:17;;;;;;;5.03;0.60;;;4.10;99.90;;;;;;4859533;29;20432;-75
2021/01/14 05:13:44;;;;;;;4.50;0.70;;;4.00;99.90;;;;;;4858729;29;20026;-77
2021/01/14 05:16:10;;;;;;;5.75;0.70;;;4.00;99.90;;;;;;4856915;29;20021;-77
2021/01/14 05:18:36;;;;;;;2.38;0.60;;;4.10;99.90;;;;;;4858969;29;20383;-77
2021/01/14 05:21:03;;;;;;;5.93;1.55;;;4.00;99.90;;;;;;4859493;29;20048;-77
2021/01/14 05:23:31;;;;;;;4.90;1.17;;;4.00;99.90;;;;;;4858912;29;20391;-77
2021/01/14 05:25:59;;;;;;;6.75;0.70;;;4.00;99.90;;;;;;4857860;29;20466;-77
2021/01/14 05:28:26;;;;;;;1.35;0.57;;;4.00;99.90;;;;;;4859157;29;20033;-77
2021/01/14 05:30:52;;;;;;;3.58;0.70;;;4.10;99.90;;;;;;4859655;29;20482;-77
2021/01/14 05:33:20;;;;;;;8.63;0.77;;;4.10;99.90;;;;;;4857836;29;20148;-77
2021/01/14 05:35:53;;;;;;;9.55;0.82;;;4.10;99.90;;;;;;4857778;29;20063;-77
2021/01/14 05:38:30;;;;;;;5.57;0.90;;;4.10;99.90;;;;;;4860109;29;20041;-76
2021/01/14 05:41:18;;;;;;;8.90;0.40;;;4.10;99.90;;;;;;4857452;29;20022;-76
2021/01/14 05:43:58;;;;;;;4.00;0.90;;;4.00;99.90;;;;;;4860002;29;20033;-76
2021/01/14 05:46:25;;;;;;;8.52;0.70;;;4.00;99.90;;;;;;4858143;29;20495;-75
2021/01/14 05:48:53;;;;;;;4.38;0.95;;;3.90;99.90;;;;;;4843193;29;20250;-75
2021/01/14 05:51:20;;;;;;;;;;;3.80;99.90;;;;;;4859299;29;20384;-76
2021/01/14 05:53:53;;;;;;;2.97;1.08;;;3.80;99.90;;;;;;4858698;29;19912;-76
2021/01/14 05:56:34;;;;;;;9.02;1.02;;;3.80;99.90;;;;;;4862201;29;20041;-76
2021/01/14 05:59:02;;;;;;;2.58;0.93;;;3.70;99.90;;;;;;4862349;29;20487;-76
2021/01/14 06:01:28;;;;;;;15.60;0.90;;;3.70;99.90;;;;;;4861550;29;20030;-76
2021/01/14 06:03:54;;;;;;;5.88;0.55;;;3.80;99.90;;;;;;4846343;29;20428;-76
2021/01/14 06:06:20;;;;;;;7.00;0.77;;;3.80;99.90;;;;;;4861293;29;20041;-77
2021/01/14 06:08:46;;;;;;;12.00;0.70;;;3.80;99.90;;;;;;4860723;29;20115;-77
2021/01/14 06:11:21;;;;;;;3.58;0.70;;;3.90;99.90;;;;;;4861470;29;20109;-75
2021/01/14 06:13:47;;;;;;;5.45;0.60;;;4.00;99.90;;;;;;4852723;29;20033;-76
2021/01/14 06:16:13;;;;;;;5.13;0.70;;;3.90;99.90;;;;;;4860735;29;20021;-77
2021/01/14 06:18:39;;;;;;;9.13;1.67;;;3.90;99.90;;;;;;4861181;29;20121;-76
2021/01/14 06:21:05;;;;;;;9.77;0.88;;;3.90;99.90;;;;;;4846825;29;20505;-76
2021/01/14 06:23:44;;;;;;;7.80;1.92;;;3.90;99.90;;;;;;4849570;29;20030;-77
2021/01/14 06:26:10;;;;;;;6.38;0.75;;;3.80;99.90;;;;;;4861430;29;20105;-78
2021/01/14 06:28:36;;;;;;;15.20;1.30;;;3.80;99.90;;;;;;4862738;29;20062;-75
2021/01/14 06:31:07;;;;;;;7.32;0.60;;;3.80;99.90;;;;;;4858909;29;20030;-76
2021/01/14 06:33:35;;;;;;;4.95;0.40;;;3.70;99.90;;;;;;4851825;29;20029;-76
2021/01/14 06:36:07;;;;;;;4.45;0.70;;;3.80;99.90;;;;;;4855227;29;20033;-76
2021/01/14 06:38:42;;;;;;;5.90;1.05;;;3.80;99.90;;;;;;4854496;29;20026;-76
2021/01/14 06:41:21;;;;;;;13.63;2.90;;;3.80;99.90;;;;;;4855841;29;20063;-76
2021/01/14 06:43:49;;;;;;;3.95;1.02;;;3.80;99.90;;;;;;4862102;29;20062;-76
2021/01/14 06:46:22;;;;;;;2.80;0.50;;;3.80;99.90;;;;;;4858541;29;20027;-75
2021/01/14 06:48:50;;;;;;;4.85;0.75;;;3.80;99.90;;;;;;4855698;29;20057;-76
2021/01/14 06:51:23;;;;;;;3.78;1.10;;;3.80;99.90;;;;;;4859315;29;20361;-75
2021/01/14 06:53:55;;;;;;;7.60;1.23;;;3.80;99.90;;;;;;4860415;29;20042;-76
2021/01/14 06:56:23;;;;;;;6.07;0.55;;;3.80;99.90;;;;;;4841305;29;20037;-76
2021/01/14 06:58:50;;;;;;;3.47;0.80;;;3.80;99.90;;;;;;4861605;29;20025;-76
2021/01/14 07:01:18;;;;;;;2.85;0.68;;;3.80;99.90;;;;;;4856079;29;20072;-75
2021/01/14 07:03:56;;;;;;;8.65;1.02;;;3.80;99.90;;;;;;4857198;29;20142;-75
2021/01/14 07:06:26;;;;;;;7.22;0.82;;;3.70;99.90;;;;;;4854537;29;20041;-76
2021/01/14 07:09:13;;;;;;;6.53;0.80;;;3.70;99.90;;;;;;4855572;29;20090;-76
2021/01/14 07:11:41;;;;;;;8.82;1.17;;;3.70;99.90;;;;;;4857136;29;20029;-76
2021/01/14 07:14:25;;;;;;;6.57;1.17;;;3.70;99.90;;;;;;4853525;29;20101;-75
2021/01/14 07:16:59;;;;;;;3.83;1.17;;;3.70;99.90;;;;;;4856051;29;20044;-76
2021/01/14 07:19:25;;;;;;;5.68;0.98;;;3.70;99.90;;;;;;4852055;29;20086;-76
2021/01/14 07:21:52;;;;;;;6.82;1.10;;;3.80;99.90;;;;;;4854995;29;20387;-76
2021/01/14 07:24:33;;;;;;;4.38;1.10;;;3.90;99.90;;;;;;4856107;29;20116;-76
2021/01/14 07:27:00;;;;;;;9.00;1.15;;;3.80;99.90;;;;;;4855500;29;20060;-75
2021/01/14 07:29:27;;;;;;;4.25;1.05;;;3.80;99.90;;;;;;4838641;29;20033;-75
2021/01/14 07:31:58;;;;;;;4.85;0.85;;;3.80;99.90;;;;;;4857054;29;20065;-76
2021/01/14 07:34:40;;;;;;;6.25;1.00;;;3.80;99.90;;;;;;4855499;29;20025;-78
2021/01/14 07:37:11;;;;;;;8.68;1.40;;;3.70;99.90;;;;;;4860304;29;20029;-75
2021/01/14 07:39:57;;;;;;;4.18;1.02;;;3.70;99.90;;;;;;4864854;29;20117;-77
2021/01/14 07:42:34;;;;;;;2.83;0.90;;;3.70;99.90;;;;;;4849356;29;20029;-79
2021/01/14 07:45:02;;;;;;;6.80;1.17;;;3.60;99.90;;;;;;4855862;29;20282;-76
2021/01/14 07:47:31;;;;;;;;;;;3.70;99.90;;;;;;4854796;29;20057;-82
2021/01/14 07:50:21;;;;;;;8.55;1.10;;;3.60;99.90;;;;;;4839297;29;20360;-77
2021/01/14 07:52:56;;;;;;;5.13;1.42;;;3.50;99.90;;;;;;4853456;29;20037;-79
2021/01/14 07:55:26;;;;;;;6.03;1.08;;;3.50;99.90;;;;;;4842040;29;20058;-76
2021/01/14 07:58:23;;;;;;;5.55;0.98;;;3.60;99.90;;;;;;4840374;29;20026;-80
2021/01/14 08:00:59;;;;;;;3.55;1.23;;;3.60;99.90;;;;;;4839324;29;20072;-82
2021/01/14 08:03:36;;;;;;;6.38;1.85;;;3.70;99.90;;;;;;4856453;29;20053;-81
2021/01/14 08:06:34;;;;;;;4.22;0.50;;;3.70;99.90;;;;;;4842782;29;20137;-82
2021/01/14 08:09:13;;;;;;;7.57;0.80;;;3.70;99.90;;;;;;4838386;29;20046;-82
2021/01/14 08:11:45;;;;;;;6.10;1.45;;;3.70;99.90;;;;;;4836806;29;20026;-81
2021/01/14 08:14:21;;;;;;;4.00;1.10;;;3.60;99.90;;;;;;4837792;29;20100;-81
2021/01/14 08:16:55;;;;;;;11.05;2.13;;;3.50;99.90;;;;;;4840521;29;20034;-79
2021/01/14 08:19:24;;;;;;;7.05;1.52;;;3.60;99.90;;;;;;4838135;29;20034;-79
2021/01/14 08:22:16;;;;;;;7.47;1.30;;;3.60;99.90;;;;;;4839749;29;20041;-83
2021/01/14 08:24:47;;;;;;;5.30;1.63;;;3.70;99.90;;;;;;4844252;29;20042;-80
2021/01/14 08:27:34;;;;;;;6.45;1.02;;;3.70;99.90;;;;;;4842903;29;20056;-79
2021/01/14 08:30:12;;;;;;;3.97;1.38;;;3.80;99.90;;;;;;4853153;29;20498;-81
2021/01/14 08:32:42;;;;;;;;;;;3.80;99.90;;;;;;4825834;29;20046;-81
2021/01/14 08:35:34;;;;;;;6.45;1.60;;;3.80;99.90;;;;;;4842865;29;19912;-81
2021/01/14 08:38:10;;;;;;;2.40;1.30;;;3.70;99.90;;;;;;4842570;29;20484;-79
2021/01/14 08:40:37;;;;;;;4.97;1.48;;;3.80;99.90;;;;;;4852774;29;20539;-82
2021/01/14 08:43:05;;;;;;;3.63;0.95;;;3.80;99.90;;;;;;4854196;29;20037;-81
2021/01/14 08:45:44;;;;;;;3.97;1.00;;;3.90;99.90;;;;;;4856614;29;20034;-81
2021/01/14 08:48:29;;;;;;;7.60;1.40;;;3.80;99.90;;;;;;4843040;29;20049;-82
2021/01/14 08:50:54;;;;;;;6.50;1.40;;;3.90;99.90;;;;;;4856449;29;20136;-81
2021/01/14 08:53:28;;;;;;;8.50;1.15;;;3.90;99.90;;;;;;4826978;29;20059;-81
2021/01/14 08:56:04;;;;;;;7.82;1.52;;;3.80;99.90;;;;;;4842269;29;20037;-82
2021/01/14 08:58:44;;;;;;;6.95;2.40;;;3.80;99.90;;;;;;4857901;29;20133;-82
2021/01/14 09:01:20;;;;;;;4.03;0.82;;;3.90;99.90;;;;;;4838707;29;20108;-82
2021/01/14 09:03:47;;;;;;;4.55;0.93;;;3.90;99.90;;;;;;4844633;29;20052;-81
2021/01/14 09:06:16;;;;;;;2.75;0.75;;;4.00;99.90;;;;;;4842111;29;20074;-79
2021/01/14 09:08:42;;;;;;;4.43;0.90;;;4.00;99.90;;;;;;4844897;29;20061;-81
2021/01/14 09:11:08;;;;;;;8.70;0.98;;;4.00;99.90;;;;;;4855986;29;20034;-80
2021/01/14 09:13:34;;;;;;;2.45;1.00;;;4.00;99.90;;;;;;4858504;29;20075;-82
2021/01/14 09:16:09;;;;;;;4.68;1.70;;;4.00;99.90;;;;;;4853675;29;20116;-83
2021/01/14 09:18:40;;;;;;;2.33;0.85;;;4.00;99.90;;;;;;4838711;29;20507;-82
2021/01/14 09:21:07;;;;;;;6.93;1.30;;;4.00;99.90;;;;;;4851883;29;20022;-81
2021/01/14 09:23:37;;;;;;;6.45;1.25;;;4.00;99.90;;;;;;4841266;29;20026;-81
2021/01/14 09:26:11;;;;;;;8.60;1.00;;;4.00;99.90;;;;;;4839066;29;20049;-82
2021/01/14 09:28:38;;;;;;;7.60;1.00;;;4.00;99.90;;;;;;4845068;29;20437;-81
2021/01/14 09:31:09;;;;;;;10.35;1.25;;;4.10;99.90;;;;;;4860542;29;20078;-81
2021/01/14 09:33:37;;;;;;;7.15;1.60;;;4.00;99.90;;;;;;4833597;29;20068;-80
2021/01/14 09:36:10;;;;;;;7.35;2.00;;;4.00;99.90;;;;;;4846339;29;20483;-79
2021/01/14 09:38:47;;;;;;;4.78;1.10;;;4.00;99.90;;;;;;4847605;29;20038;-81
2021/01/14 09:41:23;;;;;;;5.15;1.50;;;4.00;99.90;;;;;;4845805;29;20049;-82
2021/01/14 09:43:50;;;;;;;4.57;0.80;;;4.00;99.90;;;;;;4861751;29;20424;-80
2021/01/14 09:46:15;;;;;;;6.50;1.40;;;4.10;99.90;;;;;;4859328;29;20037;-81
2021/01/14 09:48:41;;;;;;;2.90;1.17;;;4.10;99.90;;;;;;4859971;29;20613;-80
2021/01/14 09:51:11;;;;;;;6.22;2.25;;;4.00;99.90;;;;;;4860174;29;20040;-82
2021/01/14 09:53:42;;;;;;;5.10;1.90;;;4.10;99.90;;;;;;4846260;29;20033;-82
2021/01/14 09:56:11;;;;;;;6.97;1.10;;;4.00;99.90;;;;;;4846955;29;20114;-80
2021/01/14 09:58:40;;;;;;;11.90;0.93;;;4.00;99.90;;;;;;4846635;29;20184;-83
2021/01/14 10:01:09;;;;;;;6.70;1.75;;;4.00;99.90;;;;;;4857149;29;20540;-79
2021/01/14 10:03:36;;;;;;;2.70;1.02;;;4.00;99.90;;;;;;4844210;29;20261;-81
2021/01/14 10:06:02;;;;;;;10.02;1.23;;;4.00;99.90;;;;;;4859553;29;20041;-80
2021/01/14 10:08:29;;;;;;;9.68;1.13;;;4.00;99.90;;;;;;4859184;29;20473;-81
2021/01/14 10:10:56;;;;;;;5.88;1.15;;;4.00;99.90;;;;;;4860480;29;20487;-81
2021/01/14 10:13:22;;;;;;;4.30;1.40;;;4.00;99.90;;;;;;4863346;29;20046;-81
2021/01/14 10:15:47;;;;;;;5.85;1.05;;;4.00;99.90;;;;;;4861169;29;20097;-80
2021/01/14 10:18:26;;;;;;;10.27;1.60;;;4.00;99.90;;;;;;4860134;29;20046;-80
2021/01/14 10:21:03;;;;;;;6.30;1.92;;;4.00;99.90;;;;;;4861060;29;20045;-81
2021/01/14 10:23:31;;;;;;;2.95;1.20;;;3.90;99.90;;;;;;4861892;29;20038;-80
2021/01/14 10:25:56;;;;;;;6.03;1.52;;;3.90;99.90;;;;;;4861945;29;20146;-80
2021/01/14 10:28:23;;;;;;;7.95;1.60;;;3.80;99.90;;;;;;4861291;29;20046;-83
2021/01/14 10:30:49;;;;;;;9.25;1.98;;;3.90;99.90;;;;;;4861548;29;20034;-81
2021/01/14 10:33:15;;;;;;;2.75;1.73;;;3.90;99.90;;;;;;4864426;29;20095;-81
2021/01/14 10:35:42;;;;;;;8.23;2.17;;;3.90;99.90;;;;;;4827064;29;20032;-81
2021/01/14 10:38:13;;;;;;;9.93;1.98;;;3.90;99.90;;;;;;4849374;29;20468;-83
2021/01/14 10:40:46;;;;;;;3.60;1.17;;;4.00;99.90;;;;;;4847514;29;20038;-81
2021/01/14 10:43:17;;;;;;;3.22;1.60;;;4.00;99.90;;;;;;4864944;29;20041;-80
2021/01/14 10:45:43;;;;;;;13.48;2.80;;;4.00;99.90;;;;;;4863093;29;20034;-80
2021/01/14 10:48:17;;;;;;;17.25;2.10;;;3.90;99.90;;;;;;4836229;29;20038;-81
2021/01/14 10:50:53;;;;;;;4.80;1.65;;;3.90;99.90;;;;;;4847114;29;20054;-80
2021/01/14 10:53:26;;;;;;;5.18;1.80;;;4.00;99.90;;;;;;4830210;29;21580;-81
2021/01/14 10:56:06;;;;;;;3.97;1.70;;;4.00;99.90;;;;;;4828996;29;20070;-79
2021/01/14 10:58:33;;;;;;;4.90;2.05;;;4.00;99.90;;;;;;4841144;29;20045;-80
2021/01/14 11:00:59;;;;;;;3.50;1.88;;;4.00;99.90;;;;;;4830959;29;20114;-80
2021/01/14 11:03:27;;;;;;;5.57;1.83;;;4.10;99.90;;;;;;4830315;29;20428;-80
2021/01/14 11:05:53;;;;;;;;;;;4.10;99.90;;;;;;4833871;29;20494;-79
2021/01/14 11:08:21;;;;;;;8.35;2.35;;;4.10;99.90;;;;;;4827017;29;19978;-80
2021/01/14 11:11:02;;;;;;;5.45;2.47;;;4.00;99.90;;;;;;4846097;29;20514;-80
2021/01/14 11:13:51;;;;;;;3.33;1.70;;;3.90;99.90;;;;;;4833321;29;20033;-83
2021/01/14 11:16:22;;;;;;;7.68;2.25;;;3.90;99.90;;;;;;4844555;29;20565;-81
2021/01/14 11:18:50;;;;;;;6.35;1.98;;;3.90;99.90;;;;;;4822791;29;20038;-80
2021/01/14 11:21:30;;;;;;;5.32;1.77;;;3.90;99.90;;;;;;4833839;29;20030;-81
2021/01/14 11:23:56;;;;;;;3.50;1.92;;;3.90;99.90;;;;;;4846687;29;20038;-80
2021/01/14 11:26:23;;;;;;;8.57;1.95;;;3.80;99.90;;;;;;4830837;29;20060;-79
2021/01/14 11:28:50;;;;;;;9.48;2.03;;;3.80;99.90;;;;;;4831404;29;20050;-81
2021/01/14 11:31:18;;;;;;;7.82;2.75;;;3.90;99.90;;;;;;4841429;29;20054;-78
2021/01/14 11:33:44;;;;;;;5.90;1.70;;;4.00;99.90;;;;;;4846229;29;20559;-81
2021/01/14 11:36:11;;;;;;;6.95;2.53;;;4.00;99.90;;;;;;4831761;29;20061;-82
2021/01/14 11:38:38;;;;;;;4.80;1.83;;;4.00;99.90;;;;;;4845737;29;20038;-79
2021/01/14 11:41:03;;;;;;;7.10;2.45;;;4.10;99.90;;;;;;4846134;29;20031;-80
2021/01/14 11:43:33;;;;;;;4.63;1.70;;;4.10;99.90;;;;;;4823051;29;20068;-79
2021/01/14 11:45:59;;;;;;;8.20;2.58;;;4.10;99.90;;;;;;4843713;29;20054;-82
2021/01/14 11:48:24;;;;;;;6.63;2.67;;;4.10;99.90;;;;;;4850708;29;20053;-79
2021/01/14 11:50:50;;;;;;;7.03;2.42;;;4.10;99.90;;;;;;4867999;29;20079;-80
2021/01/14 11:53:15;;;;;;;10.23;2.30;;;4.20;99.90;;;;;;4865594;29;20041;-80
2021/01/14 11:55:41;;;;;;;3.63;2.10;;;4.20;99.90;;;;;;4858465;29;20041;-79
2021/01/14 11:58:07;;;;;;;5.28;1.88;;;4.30;99.90;;;;;;4863823;29;20026;-80
2021/01/14 12:00:33;;;;;;;7.20;2.13;;;4.30;99.90;;;;;;4855347;29;20037;-79
2021/01/14 12:03:01;;;;;;;6.00;2.45;;;4.20;99.90;;;;;;4850513;29;20030;-82
2021/01/14 12:05:27;;;;;;;7.15;2.08;;;4.20;99.90;;;;;;4868918;29;20391;-80
2021/01/14 12:07:53;;;;;;;3.33;2.10;;;4.10;99.90;;;;;;4866401;29;20034;-79
2021/01/14 12:10:19;;;;;;;9.80;2.53;;;4.00;99.90;;;;;;4852363;29;20046;-81
2021/01/14 12:12:44;;;;;;;6.15;2.08;;;4.10;99.90;;;;;;4855118;29;20085;-80
2021/01/14 12:15:10;;;;;;;8.02;2.63;;;4.10;99.90;;;;;;4854048;29;20056;-80
2021/01/14 12:17:36;;;;;;;8.32;2.25;;;4.20;99.90;;;;;;4868255;29;20041;-80
2021/01/14 12:20:02;;;;;;;2.50;1.63;;;4.20;99.90;;;;;;4865199;29;20030;-81
2021/01/14 12:22:28;;;;;;;10.73;3.83;;;4.20;99.90;;;;;;4868298;29;20460;-80
2021/01/14 12:24:57;;;;;;;6.30;2.30;;;4.20;99.90;;;;;;4866970;29;20026;-80
2021/01/14 12:27:22;;;;;;;4.18;2.28;;;4.30;99.90;;;;;;4850175;29;20042;-80
2021/01/14 12:29:48;;;;;;;7.38;2.88;;;4.50;99.90;;;;;;4852564;29;20034;-80
2021/01/14 12:32:15;;;;;;;5.63;2.25;;;4.50;99.90;;;;;;4868668;29;20091;-81
2021/01/14 12:34:40;;;;;;;8.07;2.92;;;4.60;99.90;;;;;;4851672;29;20068;-81
2021/01/14 12:37:06;;;;;;;6.60;2.03;;;4.60;99.90;;;;;;4867434;29;20029;-80
2021/01/14 12:39:32;;;;;;;4.25;2.05;;;4.60;99.90;;;;;;4864593;29;20048;-81
2021/01/14 12:41:58;;;;;;;9.98;2.00;;;4.60;99.90;;;;;;4845625;29;20042;-79
2021/01/14 12:44:24;;;;;;;3.80;1.90;;;4.60;99.90;;;;;;4846046;29;20203;-80
2021/01/14 12:46:50;;;;;;;13.13;2.08;;;4.50;99.90;;;;;;4844420;29;20112;-80
2021/01/14 12:49:18;;;;;;;3.80;1.90;;;4.50;99.90;;;;;;4849069;29;20057;-81
2021/01/14 12:51:45;;;;;;;8.52;1.95;;;4.40;99.90;;;;;;4832997;29;20111;-78
2021/01/14 12:54:11;;;;;;;7.53;1.98;;;4.40;99.90;;;;;;4845599;29;20034;-79
2021/01/14 12:56:38;;;;;;;6.70;2.40;;;4.50;99.90;;;;;;4833102;29;20042;-81
2021/01/14 12:59:05;;;;;;;6.28;1.70;;;4.50;99.90;;;;;;4848791;29;20519;-80
2021/01/14 13:01:36;;;;;;;7.00;2.33;;;4.50;99.90;;;;;;4846942;29;20133;-80
2021/01/14 13:04:04;;;;;;;8.25;1.83;;;4.50;99.90;;;;;;4841477;29;20360;-80
2021/01/14 13:06:31;;;;;;;10.93;2.10;;;4.50;99.90;;;;;;4849545;29;20049;-80
2021/01/14 13:08:58;;;;;;;3.60;1.70;;;4.40;99.90;;;;;;4833197;29;20030;-80
2021/01/14 13:11:25;;;;;;;4.95;2.03;;;4.40;99.90;;;;;;4841293;29;20573;-80